Hoopeston, Illinois
Current Conditions -  °F | °C
As of 8:35 AM on Friday 28 Nov 2014 (Local Time) from KDNV Reporting Station
Overcast Overcast  
Wind Chill: 12°   Ceiling: 12000
Heat Index: 22°   Visibility: 10mi
Dew Point: 15°   Wind: 9mph
Humidity: 75%   Direction: 160°SSE
Pressure: 30.29"   Gusts: NA
Location:  40.47°N, 87.67°W
Report Text: KDNV 281435Z AUTO 16008KT 10SM OVC120 M06/M09 A3029 RMK AO2 T10571095
Loading
Personal Weather Stations






























Interactive Weather Map New forecast layout! Learn more

10-Day Weather Forecast

Advertisements
Track Severe Weather on mobile